Time;durP1;ratioP1;P1;durP2;ratioP2;P2;SDS_P1;SDS_P2;PMS_P1;PMS_P2;Temp;Humidity;BMP_temperature;BMP_pressure;BME280_temperature;BME280_humidity;BME280_pressure;Samples;Min_cycle;Max_cycle;Signal;HPM_P1;HPM_P2
2024/04/19 00:01:53;;;;;;;5.20;2.05;;;;;;;9.45;100.00;101417.22;5634545;26;20011;-75
2024/04/19 00:04:26;;;;;;;;;;;;;;;10.11;100.00;101420.28;5634763;26;20019;-74
2024/04/19 00:06:58;;;;;;;3.28;2.00;;;;;;;9.48;100.00;101417.84;5637629;26;19980;-75
2024/04/19 00:09:30;;;;;;;4.60;2.25;;;;;;;9.37;100.00;101407.31;5641733;26;20452;-76
2024/04/19 00:12:02;;;;;;;4.85;2.30;;;;;;;9.36;100.00;101396.97;5642798;26;19998;-76
2024/04/19 00:14:34;;;;;;;5.20;2.50;;;;;;;9.32;100.00;101388.50;5633886;26;20448;-75
2024/04/19 00:17:06;;;;;;;4.93;2.20;;;;;;;9.34;100.00;101391.81;5637802;26;20032;-74
2024/04/19 00:19:38;;;;;;;7.15;2.50;;;;;;;9.30;100.00;101389.53;5638770;26;20004;-75
2024/04/19 00:22:10;;;;;;;3.70;2.22;;;;;;;9.29;100.00;101380.88;5640938;26;20055;-75
2024/04/19 00:24:42;;;;;;;3.55;2.25;;;;;;;9.26;100.00;101368.84;5636118;26;20449;-76
2024/04/19 00:27:14;;;;;;;4.35;2.28;;;;;;;9.24;100.00;101351.56;5643924;26;20017;-75
2024/04/19 00:29:46;;;;;;;5.25;2.42;;;;;;;9.21;100.00;101349.22;5637335;26;20011;-75
2024/04/19 00:32:18;;;;;;;4.32;2.60;;;;;;;9.21;100.00;101357.88;5644737;26;20032;-75
2024/04/19 00:34:50;;;;;;;4.32;2.63;;;;;;;9.22;100.00;101361.31;5637755;26;20057;-76
2024/04/19 00:37:22;;;;;;;4.50;2.25;;;;;;;9.19;100.00;101358.91;5633363;26;20007;-76
2024/04/19 00:39:53;;;;;;;4.80;2.60;;;;;;;9.20;100.00;101350.13;5640656;26;20014;-76
2024/04/19 00:42:25;;;;;;;4.05;2.50;;;;;;;9.21;100.00;101344.81;5634532;26;20007;-76
2024/04/19 00:44:57;;;;;;;4.15;2.78;;;;;;;9.22;100.00;101348.25;5627648;26;20008;-75
2024/04/19 00:47:29;;;;;;;4.03;3.03;;;;;;;9.15;100.00;101344.41;5633270;26;20019;-79
2024/04/19 00:50:01;;;;;;;4.55;3.28;;;;;;;9.13;100.00;101325.38;5632030;26;20008;-76
2024/04/19 00:52:33;;;;;;;5.00;3.42;;;;;;;9.08;100.00;101319.63;5637330;26;20026;-76
2024/04/19 00:55:05;;;;;;;3.55;3.20;;;;;;;9.10;100.00;101318.59;5640519;26;20016;-76
2024/04/19 00:57:37;;;;;;;5.53;3.67;;;;;;;9.12;100.00;101308.00;5633473;26;20477;-77
2024/04/19 01:00:10;;;;;;;5.25;3.33;;;;;;;9.13;100.00;101307.06;5639487;26;20051;-78
2024/04/19 01:02:42;;;;;;;5.35;3.50;;;;;;;9.12;100.00;101305.41;5636974;26;20039;-75
2024/04/19 01:05:14;;;;;;;6.32;3.42;;;;;;;9.10;100.00;101310.75;5631193;26;20078;-76
2024/04/19 01:07:47;;;;;;;5.82;3.72;;;;;;;9.10;100.00;101309.91;5633142;26;20034;-75
2024/04/19 01:10:19;;;;;;;3.25;2.80;;;;;;;9.09;100.00;101303.88;5635304;26;20465;-76
2024/04/19 01:12:51;;;;;;;4.30;2.53;;;;;;;9.02;100.00;101298.22;5638110;26;20043;-77
2024/04/19 01:15:24;;;;;;;4.10;2.83;;;;;;;9.08;100.00;101290.88;5634297;26;19998;-77
2024/04/19 01:17:56;;;;;;;3.53;2.45;;;;;;;9.09;100.00;101287.31;5631681;26;20017;-76
2024/04/19 01:20:28;;;;;;;4.10;2.58;;;;;;;9.01;100.00;101261.72;5637050;26;20030;-78
2024/04/19 01:23:00;;;;;;;4.07;2.70;;;;;;;9.05;100.00;101272.81;5638781;26;20038;-76
2024/04/19 01:25:37;;;;;;;4.00;2.58;;;;;;;9.17;100.00;101271.94;5639381;26;20035;-75
2024/04/19 01:28:11;;;;;;;3.03;2.38;;;;;;;9.11;100.00;101267.97;5640122;26;20324;-75
2024/04/19 01:30:44;;;;;;;3.97;2.22;;;;;;;9.11;100.00;101261.91;5637328;26;20043;-77
2024/04/19 01:33:16;;;;;;;4.63;2.50;;;;;;;9.12;100.00;101260.97;5641276;26;20031;-78
2024/04/19 01:35:48;;;;;;;3.83;2.65;;;;;;;9.12;100.00;101247.91;5633732;26;20003;-75
2024/04/19 01:38:20;;;;;;;3.50;2.80;;;;;;;9.08;100.00;101246.44;5638127;26;20006;-75
2024/04/19 01:40:52;;;;;;;4.57;2.83;;;;;;;9.10;100.00;101247.19;5634056;26;20059;-77
2024/04/19 01:43:24;;;;;;;4.30;3.20;;;;;;;9.03;100.00;101231.09;5636178;26;20273;-76
2024/04/19 01:45:56;;;;;;;4.45;3.40;;;;;;;9.06;100.00;101233.50;5638436;26;20002;-76
2024/04/19 01:48:28;;;;;;;5.60;3.85;;;;;;;9.05;100.00;101230.97;5638390;26;20472;-76
2024/04/19 01:51:00;;;;;;;6.35;4.07;;;;;;;9.04;100.00;101206.63;5640184;26;20004;-76
2024/04/19 01:53:31;;;;;;;7.68;4.30;;;;;;;8.92;100.00;101204.91;5636026;26;20003;-75
2024/04/19 01:56:04;;;;;;;5.93;4.28;;;;;;;8.99;100.00;101191.28;5642191;26;20014;-76
2024/04/19 01:58:35;;;;;;;4.40;4.00;;;;;;;9.07;100.00;101203.81;5632875;26;20013;-76
2024/04/19 02:01:07;;;;;;;8.35;4.10;;;;;;;9.07;100.00;101195.13;5637035;26;20361;-76
2024/04/19 02:03:39;;;;;;;4.53;3.58;;;;;;;9.10;100.00;101184.47;5632687;26;20003;-76
2024/04/19 02:06:14;;;;;;;4.85;3.65;;;;;;;9.01;100.00;101170.25;5631346;26;20544;-77
2024/04/19 02:08:45;;;;;;;4.50;3.67;;;;;;;9.10;100.00;101179.22;5629296;26;20012;-76
2024/04/19 02:11:17;;;;;;;4.95;3.38;;;;;;;9.08;100.00;101173.28;5625159;26;20015;-75
2024/04/19 02:13:49;;;;;;;4.47;3.58;;;;;;;9.06;100.00;101170.78;5633164;26;21246;-76
2024/04/19 02:16:21;;;;;;;5.78;3.42;;;;;;;9.06;100.00;101164.72;5634658;26;20003;-78
2024/04/19 02:18:53;;;;;;;5.43;3.15;;;;;;;8.94;100.00;101151.59;5635466;26;20049;-76
2024/04/19 02:21:27;;;;;;;4.15;3.38;;;;;;;8.99;100.00;101156.50;5640065;26;20073;-77
2024/04/19 02:24:01;;;;;;;5.15;3.58;;;;;;;9.02;100.00;101148.44;5644802;26;20035;-75
2024/04/19 02:26:34;;;;;;;6.78;4.28;;;;;;;9.01;100.00;101154.59;5642367;26;20007;-76
2024/04/19 02:31:57;;;;;;;5.95;4.30;;;;;;;9.05;100.00;101135.13;5630451;26;20503;-76
2024/04/19 02:34:29;;;;;;;5.35;4.22;;;;;;;8.98;100.00;101115.63;5629899;26;20019;-79
2024/04/19 02:37:01;;;;;;;5.93;4.43;;;;;;;9.03;100.00;101118.72;5639067;26;20010;-76
2024/04/19 02:39:33;;;;;;;6.00;4.50;;;;;;;9.00;100.00;101104.09;5635250;26;20363;-76
2024/04/19 02:42:05;;;;;;;5.78;4.45;;;;;;;9.08;100.00;101107.94;5641139;26;20013;-76
2024/04/19 02:44:37;;;;;;;7.53;4.38;;;;;;;8.97;100.00;101088.63;5635670;26;20011;-76
2024/04/19 02:47:09;;;;;;;6.05;4.90;;;;;;;9.12;100.00;101096.28;5633257;26;20043;-76
2024/04/19 02:49:41;;;;;;;4.90;4.40;;;;;;;9.07;100.00;101080.13;5664299;26;20015;-76
2024/04/19 02:52:12;;;;;;;7.45;5.07;;;;;;;9.07;100.00;101091.41;5638949;26;20006;-75
2024/04/19 02:54:44;;;;;;;5.07;4.55;;;;;;;9.08;100.00;101094.84;5644896;26;20022;-76
2024/04/19 02:57:16;;;;;;;6.95;4.82;;;;;;;9.00;100.00;101083.19;5640001;26;19999;-76
2024/04/19 02:59:48;;;;;;;7.53;4.88;;;;;;;9.05;100.00;101079.41;5643678;26;20585;-76
2024/04/19 03:02:20;;;;;;;6.20;4.65;;;;;;;9.07;100.00;101067.91;5634803;26;20007;-75
2024/04/19 03:04:52;;;;;;;7.10;4.32;;;;;;;9.08;100.00;101066.94;5643325;26;20135;-78
2024/04/19 03:07:24;;;;;;;6.00;4.57;;;;;;;9.06;100.00;101057.56;5642224;26;20001;-76
2024/04/19 03:09:56;;;;;;;5.72;4.50;;;;;;;9.08;100.00;101063.50;5637060;26;20583;-76
2024/04/19 03:12:28;;;;;;;6.00;4.50;;;;;;;9.08;100.00;101045.19;5638246;26;20019;-78
2024/04/19 03:15:00;;;;;;;6.15;4.47;;;;;;;9.08;100.00;101053.03;5638162;26;19999;-78
2024/04/19 03:17:32;;;;;;;6.20;4.75;;;;;;;9.11;100.00;101053.66;5631712;26;20065;-76
2024/04/19 03:20:05;;;;;;;6.85;4.60;;;;;;;9.09;100.00;101039.03;5643220;26;20035;-77
2024/04/19 03:22:37;;;;;;;5.57;4.40;;;;;;;9.19;100.00;101040.00;5634941;26;20032;-79
2024/04/19 03:25:09;;;;;;;7.63;5.13;;;;;;;9.12;100.00;101023.09;5643479;26;20273;-78
2024/04/19 03:27:40;;;;;;;7.35;5.25;;;;;;;9.16;100.00;101019.31;5636627;26;20353;-77
2024/04/19 03:30:26;;;;;;;5.30;4.57;;;;;;;9.30;100.00;101011.25;5645770;26;20000;-76
2024/04/19 03:32:58;;;;;;;5.38;4.60;;;;;;;9.01;100.00;100984.72;5631943;26;20009;-76
2024/04/19 03:35:30;;;;;;;5.93;5.25;;;;;;;9.16;100.00;101009.69;5633824;26;20015;-76
2024/04/19 03:38:01;;;;;;;6.10;4.82;;;;;;;9.21;100.00;101006.75;5642616;26;20026;-76
2024/04/19 03:40:33;;;;;;;6.13;5.47;;;;;;;9.23;100.00;101000.44;5644332;26;20040;-77
2024/04/19 03:43:05;;;;;;;5.35;4.85;;;;;;;9.22;100.00;100987.50;5640837;26;20031;-79
2024/04/19 03:45:40;;;;;;;5.72;5.22;;;;;;;9.26;100.00;100989.75;5634959;26;20035;-78
2024/04/19 03:48:12;;;;;;;6.22;5.50;;;;;;;9.27;100.00;100988.78;5632321;26;20047;-79
2024/04/19 03:50:46;;;;;;;7.00;6.10;;;;;;;9.21;100.00;100988.44;5641893;26;20077;-76
2024/04/19 03:53:17;;;;;;;;;;;;;;;9.91;100.00;100976.84;5630057;26;20003;-77
2024/04/19 03:55:49;;;;;;;6.22;5.63;;;;;;;9.40;100.00;100980.84;5632483;26;19932;-77
2024/04/19 03:58:21;;;;;;;6.22;5.63;;;;;;;9.34;100.00;100973.47;5647064;26;20348;-76
2024/04/19 04:00:54;;;;;;;8.90;6.53;;;;;;;9.34;100.00;100964.78;5634725;26;20029;-76
2024/04/19 04:03:26;;;;;;;7.15;6.35;;;;;;;9.38;100.00;100966.22;5638084;26;20039;-76
2024/04/19 04:05:58;;;;;;;7.43;6.53;;;;;;;9.32;100.00;100953.59;5639332;26;20007;-78
2024/04/19 04:08:30;;;;;;;7.47;6.78;;;;;;;9.27;100.00;100943.50;5634211;26;20048;-76
2024/04/19 04:11:02;;;;;;;8.68;6.70;;;;;;;9.27;100.00;100939.13;5639373;26;20010;-76
2024/04/19 04:13:34;;;;;;;7.00;6.40;;;;;;;9.30;100.00;100942.44;5643636;26;20019;-76
2024/04/19 04:16:07;;;;;;;6.45;5.95;;;;;;;9.36;100.00;100932.34;5638567;26;20003;-76
2024/04/19 04:18:39;;;;;;;7.13;6.43;;;;;;;9.36;100.00;100921.06;5636968;26;20087;-76
2024/04/19 04:21:11;;;;;;;7.37;6.77;;;;;;;9.39;100.00;100915.56;5638683;26;20717;-76
2024/04/19 04:23:43;;;;;;;7.88;7.18;;;;;;;9.35;100.00;100914.16;5634491;26;20014;-77
2024/04/19 04:26:15;;;;;;;8.15;7.47;;;;;;;9.33;100.00;100906.44;5638654;26;20035;-76
2024/04/19 04:28:48;;;;;;;8.05;7.45;;;;;;;9.37;100.00;100923.56;5649550;26;20019;-76
2024/04/19 04:31:20;;;;;;;7.85;7.15;;;;;;;9.39;100.00;100910.34;5647854;26;20050;-76
2024/04/19 04:33:52;;;;;;;7.95;7.25;;;;;;;9.31;100.00;100897.06;5635670;26;20015;-78
2024/04/19 04:36:24;;;;;;;8.45;7.75;;;;;;;9.39;100.00;100905.13;5638725;26;20034;-77
2024/04/19 04:38:55;;;;;;;8.93;8.00;;;;;;;9.39;100.00;100916.41;5643903;26;20043;-78
2024/04/19 04:41:27;;;;;;;9.13;8.32;;;;;;;9.39;100.00;100916.41;5636741;26;21624;-75
2024/04/19 04:43:59;;;;;;;9.45;8.55;;;;;;;9.41;100.00;100903.22;5631170;26;20010;-75
2024/04/19 04:46:31;;;;;;;8.85;8.10;;;;;;;9.44;100.00;100909.03;5635244;26;20027;-76
2024/04/19 04:49:04;;;;;;;9.45;8.65;;;;;;;9.38;100.00;100899.06;5637002;26;19995;-79
2024/04/19 04:51:36;;;;;;;9.18;8.48;;;;;;;9.46;100.00;100901.91;5635087;26;20017;-77
2024/04/19 04:54:08;;;;;;;9.15;8.45;;;;;;;9.45;100.00;100896.81;5636635;26;20010;-76
2024/04/19 04:56:40;;;;;;;8.88;8.15;;;;;;;9.46;100.00;100891.44;5641521;26;20356;-77
2024/04/19 04:59:12;;;;;;;8.90;8.20;;;;;;;9.39;100.00;100874.56;5644902;26;19999;-75
2024/04/19 05:01:44;;;;;;;8.57;7.95;;;;;;;9.47;100.00;100887.88;5640463;26;20022;-78
2024/04/19 05:04:16;;;;;;;9.05;8.35;;;;;;;9.48;100.00;100886.94;5637946;26;20028;-76
2024/04/19 05:06:48;;;;;;;8.40;7.80;;;;;;;9.50;100.00;100874.53;5638162;26;20011;-76
2024/04/19 05:09:22;;;;;;;8.75;8.05;;;;;;;9.47;100.00;100866.97;5639002;26;20042;-76
2024/04/19 05:11:54;;;;;;;9.02;8.32;;;;;;;9.49;100.00;100864.22;5640971;26;20013;-78
2024/04/19 05:14:26;;;;;;;8.30;7.60;;;;;;;9.59;100.00;100883.47;5636598;26;20000;-76
2024/04/19 05:16:58;;;;;;;8.27;7.57;;;;;;;9.59;100.00;100866.94;5636424;26;20559;-77
2024/04/19 05:19:30;;;;;;;8.38;7.70;;;;;;;9.63;100.00;100865.75;5634800;26;20067;-76
2024/04/19 05:22:01;;;;;;;8.77;8.15;;;;;;;9.68;100.00;100864.41;5626490;26;20011;-76
2024/04/19 05:24:33;;;;;;;7.55;7.05;;;;;;;9.69;100.00;100868.66;5633182;26;20070;-77
2024/04/19 05:27:05;;;;;;;7.85;7.25;;;;;;;9.68;100.00;100868.81;5633336;26;20603;-78
2024/04/19 05:29:37;;;;;;;7.20;6.50;;;;;;;9.69;100.00;100865.22;5642980;26;20080;-77
2024/04/19 05:32:09;;;;;;;7.55;6.95;;;;;;;9.72;100.00;100857.13;5636573;26;20012;-78
2024/04/19 05:34:42;;;;;;;7.53;6.85;;;;;;;9.84;100.00;100861.38;5642240;26;20018;-76
2024/04/19 05:37:14;;;;;;;7.90;7.20;;;;;;;9.89;100.00;100863.63;5640036;26;20035;-77
2024/04/19 05:39:45;;;;;;;7.38;6.68;;;;;;;9.85;100.00;100864.81;5640174;26;20010;-77
2024/04/19 05:42:17;;;;;;;7.53;6.90;;;;;;;9.94;100.00;100870.13;5634400;26;20017;-75
2024/04/19 05:44:49;;;;;;;7.38;6.68;;;;;;;9.85;100.00;100857.81;5634430;26;20008;-77
2024/04/19 05:47:21;;;;;;;7.07;6.38;;;;;;;9.97;100.00;100862.03;5634816;26;20015;-76
2024/04/19 05:49:53;;;;;;;7.22;6.63;;;;;;;9.99;100.00;100856.66;5639733;26;20030;-77
2024/04/19 05:52:25;;;;;;;7.40;6.70;;;;;;;10.04;100.00;100854.53;5634300;26;20688;-77
2024/04/19 05:54:57;;;;;;;6.70;6.05;;;;;;;10.09;100.00;100862.81;5638079;26;20036;-79
2024/04/19 05:57:29;;;;;;;8.27;6.80;;;;;;;10.02;100.00;100851.19;5636864;26;19999;-77
2024/04/19 06:00:03;;;;;;;6.85;6.22;;;;;;;10.07;100.00;100858.66;5638226;26;20004;-77
2024/04/19 06:02:35;;;;;;;7.20;6.50;;;;;;;10.12;100.00;100856.50;5630293;26;20014;-78
2024/04/19 06:05:08;;;;;;;6.73;6.13;;;;;;;10.19;100.00;100853.25;5667795;26;20051;-79
2024/04/19 06:07:40;;;;;;;7.70;6.30;;;;;;;10.27;100.00;100854.44;5635819;26;21355;-76
2024/04/19 06:10:12;;;;;;;6.10;5.50;;;;;;;10.28;100.00;100862.16;5640991;26;20011;-78
2024/04/19 06:12:43;;;;;;;8.50;6.28;;;;;;;10.31;100.00;100848.81;5632644;26;20019;-76
2024/04/19 06:15:15;;;;;;;7.97;6.63;;;;;;;10.32;100.00;100847.84;5630064;26;20050;-79
2024/04/19 06:17:48;;;;;;;7.03;6.32;;;;;;;10.38;100.00;100849.97;5634613;26;20897;-76
2024/04/19 06:20:20;;;;;;;6.20;5.70;;;;;;;10.41;100.00;100839.19;5641149;26;20042;-78
2024/04/19 06:22:52;;;;;;;7.50;5.88;;;;;;;10.51;100.00;100846.31;5641927;26;20595;-78
2024/04/19 06:25:24;;;;;;;5.68;5.05;;;;;;;10.56;100.00;100839.69;5638369;26;20016;-76
2024/04/19 06:27:55;;;;;;;6.88;5.50;;;;;;;10.57;100.00;100840.53;5636742;26;20008;-76
2024/04/19 06:30:27;;;;;;;7.78;5.82;;;;;;;10.58;100.00;100832.56;5636253;26;20015;-79
2024/04/19 06:32:59;;;;;;;6.25;5.45;;;;;;;10.45;100.00;100801.34;5637506;26;20456;-75
2024/04/19 06:35:33;;;;;;;7.72;5.47;;;;;;;10.71;100.00;100841.00;5640290;26;20007;-78
2024/04/19 06:38:05;;;;;;;8.18;5.50;;;;;;;10.73;100.00;100837.47;5626193;26;20004;-79
2024/04/19 06:40:37;;;;;;;9.18;5.80;;;;;;;10.73;100.00;100824.34;5638815;26;20441;-77
2024/04/19 06:43:09;;;;;;;6.93;5.72;;;;;;;10.81;100.00;100825.34;5624430;26;20003;-76
2024/04/19 06:45:41;;;;;;;8.43;5.88;;;;;;;10.84;100.00;100819.03;5633051;26;20011;-76
2024/04/19 06:48:13;;;;;;;6.82;5.88;;;;;;;10.84;100.00;100805.91;5631519;26;20003;-77
2024/04/19 06:50:45;;;;;;;7.43;5.80;;;;;;;10.91;100.00;100809.63;5637184;26;20042;-77
2024/04/19 06:53:20;;;;;;;11.18;6.00;;;;;;;10.94;100.00;100809.38;5635062;26;20424;-77
2024/04/19 06:55:52;;;;;;;9.35;5.20;;;;;;;10.96;100.00;100804.84;5638216;26;20067;-76
2024/04/19 06:58:24;;;;;;;9.65;5.53;;;;;;;11.00;100.00;100797.53;5641319;26;20369;-76
2024/04/19 07:00:56;;;;;;;11.57;5.63;;;;;;;11.06;100.00;100799.59;5631656;26;20087;-76
2024/04/19 07:03:40;;;;;;;9.18;5.57;;;;;;;11.08;100.00;100793.28;5626694;26;20021;-78
2024/04/19 07:06:13;;;;;;;9.63;4.88;;;;;;;11.18;100.00;100798.56;5630657;26;20437;-76
2024/04/19 07:08:45;;;;;;;9.38;5.72;;;;;;;11.21;100.00;100795.63;5631012;26;20003;-75
2024/04/19 07:11:17;;;;;;;7.65;4.90;;;;;;;11.25;100.00;100791.81;5638726;26;20077;-76
2024/04/19 07:13:49;;;;;;;6.60;4.65;;;;;;;11.31;100.00;100787.81;5627692;26;20053;-77
2024/04/19 07:16:21;;;;;;;8.13;5.18;;;;;;;11.31;100.00;100782.56;5631943;26;20011;-77
2024/04/19 07:18:53;;;;;;;8.75;5.20;;;;;;;11.39;100.00;100787.94;5630518;26;20016;-75
2024/04/19 07:21:25;;;;;;;9.93;5.07;;;;;;;11.38;100.00;100786.28;5635166;26;20086;-76
2024/04/19 07:23:57;;;;;;;6.97;4.03;;;;;;;11.44;100.00;100786.59;5632321;26;20007;-77
2024/04/19 07:26:30;;;;;;;9.98;4.50;;;;;;;11.44;100.00;100783.13;5634155;26;20004;-76
2024/04/19 07:29:02;;;;;;;7.70;4.03;;;;;;;11.52;100.00;100788.53;5634097;26;20364;-76
2024/04/19 07:31:34;;;;;;;8.93;4.57;;;;;;;11.54;100.00;100785.75;5630896;26;20017;-76
2024/04/19 07:34:06;;;;;;;7.32;4.13;;;;;;;11.55;100.00;100787.41;5630565;26;20004;-75
2024/04/19 07:36:38;;;;;;;6.78;3.95;;;;;;;11.56;100.00;100768.09;5627335;26;20011;-76
2024/04/19 07:39:10;;;;;;;6.18;3.78;;;;;;;11.64;100.00;100781.34;5629384;26;20000;-77
2024/04/19 07:41:42;;;;;;;13.27;4.72;;;;;;;11.65;100.00;100777.75;5621669;26;20059;-76
2024/04/19 07:44:14;;;;;;;9.32;4.25;;;;;;;11.58;100.00;100755.63;5628678;26;20018;-75
2024/04/19 07:46:46;;;;;;;6.78;3.25;;;;;;;11.66;100.00;100756.59;5629339;26;20008;-75
2024/04/19 07:49:18;;;;;;;8.30;3.42;;;;;;;11.73;100.00;100756.88;5627016;26;20777;-76
2024/04/19 07:51:50;;;;;;;5.57;3.28;;;;;;;11.80;100.00;100762.41;5639419;26;20018;-76
2024/04/19 07:54:22;;;;;;;9.73;3.88;;;;;;;11.84;100.00;100762.00;5631811;26;20008;-76
2024/04/19 07:56:54;;;;;;;6.45;3.55;;;;;;;11.89;100.00;100762.44;5634919;26;20007;-74
2024/04/19 07:59:27;;;;;;;8.73;3.17;;;;;;;11.93;100.00;100761.19;5626204;26;20011;-76
2024/04/19 08:01:59;;;;;;;7.32;3.30;;;;;;;11.94;100.00;100754.13;5624522;26;20094;-74
2024/04/19 08:04:31;;;;;;;8.20;3.20;;;;;;;11.98;100.00;100755.50;5634970;26;19999;-76
2024/04/19 08:07:03;;;;;;;6.22;2.80;;;;;;;11.96;100.00;100746.91;5622758;26;20008;-77
2024/04/19 08:09:36;;;;;;;9.25;3.95;;;;;;;12.00;100.00;100744.84;5617707;26;20003;-76
2024/04/19 08:12:08;;;;;;;7.45;2.75;;;;;;;12.00;100.00;100747.47;5631442;26;19999;-75
2024/04/19 08:14:40;;;;;;;11.23;2.77;;;;;;;12.12;100.00;100746.31;5637226;26;20516;-75
2024/04/19 08:17:12;;;;;;;9.07;3.22;;;;;;;12.08;100.00;100735.28;5630474;26;20310;-76
2024/04/19 08:19:44;;;;;;;5.45;2.40;;;;;;;12.22;100.00;100741.06;5624961;26;20066;-76
2024/04/19 08:22:16;;;;;;;8.10;2.63;;;;;;;12.32;100.00;100745.31;5630277;26;20027;-76
2024/04/19 08:24:48;;;;;;;6.10;2.03;;;;;;;12.43;100.00;100744.31;5640533;26;20046;-77
2024/04/19 08:27:20;;;;;;;5.40;2.17;;;;;;;12.40;100.00;100740.16;5630321;26;20007;-76
2024/04/19 08:29:53;;;;;;;5.45;2.10;;;;;;;12.53;100.00;100739.81;5629126;26;20069;-76
2024/04/19 08:32:25;;;;;;;;;;;;;;;13.23;100.00;100734.88;5629761;26;20031;-77
2024/04/19 08:34:58;;;;;;;6.15;2.20;;;;;;;12.67;100.00;100738.53;5635538;26;19991;-76
2024/04/19 08:37:31;;;;;;;5.00;2.38;;;;;;;12.58;100.00;100737.59;5624935;26;20000;-76
2024/04/19 08:40:04;;;;;;;6.30;2.17;;;;;;;12.60;100.00;100733.00;5622525;26;20031;-75
2024/04/19 08:42:36;;;;;;;5.95;2.10;;;;;;;12.53;100.00;100723.22;5653530;26;20011;-78
2024/04/19 08:45:11;;;;;;;5.93;2.45;;;;;;;12.64;100.00;100734.38;5629526;26;20344;-76
2024/04/19 08:47:44;;;;;;;6.85;1.80;;;;;;;12.64;100.00;100744.88;5628590;26;20007;-77
2024/04/19 08:50:16;;;;;;;7.35;1.85;;;;;;;12.71;100.00;100732.00;5627400;26;20002;-76
2024/04/19 08:52:49;;;;;;;5.95;1.83;;;;;;;12.78;100.00;100734.88;5636271;26;20039;-77
2024/04/19 08:55:22;;;;;;;4.68;1.58;;;;;;;12.85;100.00;100723.63;5627063;26;20035;-75
2024/04/19 08:57:55;;;;;;;4.68;1.90;;;;;;;13.04;100.00;100727.09;5628921;26;20003;-76
2024/04/19 09:00:26;;;;;;;5.45;1.80;;;;;;;13.23;100.00;100740.16;5629863;26;20029;-76
2024/04/19 09:02:58;;;;;;;4.90;1.90;;;;;;;13.23;100.00;100731.41;5618395;26;20038;-77
2024/04/19 09:05:30;;;;;;;5.47;1.42;;;;;;;13.24;100.00;100733.91;5623174;26;20032;-75
2024/04/19 09:08:04;;;;;;;5.15;1.80;;;;;;;13.18;100.00;100729.19;5623626;26;20077;-75
2024/04/19 09:10:36;;;;;;;6.20;2.15;;;;;;;13.10;100.00;100723.84;5633068;26;20609;-77
2024/04/19 09:13:08;;;;;;;4.75;1.63;;;;;;;13.11;100.00;100729.00;5628150;26;20016;-77
2024/04/19 09:15:41;;;;;;;4.18;1.73;;;;;;;13.15;100.00;100729.50;5624693;26;20439;-77
2024/04/19 09:18:13;;;;;;;5.40;1.90;;;;;;;13.14;100.00;100722.56;5622833;26;20056;-75
2024/04/19 09:20:46;;;;;;;3.47;1.55;;;;;;;13.10;100.00;100727.31;5632502;26;20003;-77
2024/04/19 09:23:18;;;;;;;4.57;1.38;;;;;;;12.95;100.00;100731.44;5633092;26;20058;-77
2024/04/19 09:25:55;;;;;;;4.90;1.55;;;;;;;12.89;100.00;100717.09;5644433;26;20003;-77
2024/04/19 09:28:28;;;;;;;5.25;1.80;;;;;;;12.80;100.00;100738.97;5627582;26;20004;-76
2024/04/19 09:31:00;;;;;;;5.50;2.15;;;;;;;12.75;100.00;100732.53;5649539;26;20007;-77
2024/04/19 09:33:35;;;;;;;4.53;1.30;;;;;;;12.73;100.00;100744.97;5631962;26;20019;-76
2024/04/19 09:36:07;;;;;;;5.10;1.50;;;;;;;12.76;100.00;100728.91;5633344;26;20039;-77
2024/04/19 09:38:40;;;;;;;3.33;1.20;;;;;;;12.84;100.00;100729.84;5635220;26;20007;-76
2024/04/19 09:41:15;;;;;;;3.93;1.30;;;;;;;12.98;100.00;100749.53;5636824;26;20426;-76
2024/04/19 09:43:51;;;;;;;4.32;1.30;;;;;;;12.89;100.00;100726.78;5637113;26;20024;-75
2024/04/19 09:46:27;;;;;;;2.83;1.05;;;;;;;12.81;100.00;100747.72;5621570;26;20036;-77
2024/04/19 09:49:02;;;;;;;5.93;1.10;;;;;;;12.67;100.00;100735.91;5638289;26;20051;-78
2024/04/19 09:51:44;;;;;;;4.68;1.20;;;;;;;12.67;100.00;100728.00;5627442;26;20020;-76
2024/04/19 09:54:20;;;;;;;3.28;1.20;;;;;;;12.80;100.00;100736.34;5629315;26;20006;-76
2024/04/19 09:56:57;;;;;;;6.55;1.40;;;;;;;13.02;100.00;100739.56;5637091;26;20039;-76
2024/04/19 09:59:34;;;;;;;4.95;1.50;;;;;;;12.98;100.00;100744.28;5633395;26;20027;-76
2024/04/19 10:02:06;;;;;;;4.55;1.13;;;;;;;13.08;100.00;100741.59;5630977;26;20040;-75
2024/04/19 10:04:39;;;;;;;4.45;1.30;;;;;;;13.20;100.00;100732.50;5634150;26;20035;-76
2024/04/19 10:07:12;;;;;;;4.20;1.13;;;;;;;13.17;100.00;100730.19;5638022;26;20034;-78
2024/04/19 10:09:45;;;;;;;;;;;;;;;13.81;100.00;100737.00;5639617;26;20047;-77
2024/04/19 10:12:17;;;;;;;4.13;1.00;;;;;;;13.16;100.00;100720.63;5640506;26;20386;-76
2024/04/19 10:14:49;;;;;;;3.72;1.30;;;;;;;13.19;100.00;100728.25;5645082;26;20039;-77
2024/04/19 10:17:21;;;;;;;5.10;1.23;;;;;;;13.17;100.00;100724.91;5637825;26;20059;-77
2024/04/19 10:19:54;;;;;;;4.78;1.20;;;;;;;13.34;100.00;100715.41;5632128;26;20058;-77
2024/04/19 10:22:28;;;;;;;;;;;;;;;14.13;100.00;100732.94;5637527;26;20035;-75
2024/04/19 10:25:01;;;;;;;;;;;;;;;14.26;100.00;100732.50;5640247;26;21140;-75
2024/04/19 10:27:33;;;;;;;5.68;1.02;;;;;;;13.42;100.00;100725.19;5630367;26;20059;-77
2024/04/19 10:30:06;;;;;;;5.53;1.30;;;;;;;13.29;100.00;100722.91;5628505;26;20405;-76
2024/04/19 10:32:38;;;;;;;3.72;1.20;;;;;;;13.18;100.00;100729.19;5638540;26;20281;-77
2024/04/19 10:35:16;;;;;;;4.18;1.15;;;;;;;13.18;100.00;100723.94;5647904;26;20050;-76
2024/04/19 10:37:48;;;;;;;6.70;2.03;;;;;;;13.15;100.00;100713.72;5643163;26;20047;-77
2024/04/19 10:40:21;;;;;;;3.75;1.63;;;;;;;13.39;100.00;100721.88;5644363;26;20002;-75
2024/04/19 10:43:06;;;;;;;5.00;1.35;;;;;;;13.85;100.00;100717.28;5640475;26;20720;-77
2024/04/19 10:45:38;;;;;;;6.15;1.55;;;;;;;13.71;100.00;100725.72;5630903;26;20306;-77
2024/04/19 10:48:11;;;;;;;7.43;1.92;;;;;;;13.87;100.00;100706.59;5627555;26;20558;-77
2024/04/19 10:50:44;;;;;;;4.80;1.48;;;;;;;14.06;100.00;100710.84;5633732;26;20666;-76
2024/04/19 10:53:20;;;;;;;4.05;1.40;;;;;;;14.15;100.00;100717.78;5641141;26;20014;-76
2024/04/19 10:55:52;;;;;;;5.85;1.75;;;;;;;14.03;100.00;100711.16;5635216;26;20003;-77
2024/04/19 10:58:24;;;;;;;7.10;1.58;;;;;;;14.10;100.00;100720.91;5646886;26;20035;-76
2024/04/19 11:00:56;;;;;;;5.60;1.75;;;;;;;14.13;100.00;100701.34;5639867;26;20022;-76
2024/04/19 11:03:28;;;;;;;8.50;1.80;;;;;;;14.17;100.00;100702.66;5646195;26;20044;-77
2024/04/19 11:06:00;;;;;;;8.03;2.60;;;;;;;14.04;100.00;100732.06;5637895;26;20051;-75
2024/04/19 11:08:33;;;;;;;7.50;1.80;;;;;;;13.95;100.00;100727.72;5639267;26;20008;-76
2024/04/19 11:11:05;;;;;;;4.28;1.20;;;;;;;13.83;100.00;100731.59;5636757;26;20067;-77
2024/04/19 11:13:37;;;;;;;7.18;1.65;;;;;;;13.65;100.00;100736.88;5631175;26;20016;-75
2024/04/19 11:16:09;;;;;;;5.20;1.73;;;;;;;13.66;100.00;100712.22;5646036;26;20048;-76
2024/04/19 11:18:42;;;;;;;4.13;1.40;;;;;;;13.82;100.00;100735.19;5645790;26;19998;-76
2024/04/19 11:21:14;;;;;;;7.90;1.38;;;;;;;13.85;100.00;100725.19;5644087;26;20008;-77
2024/04/19 11:23:46;;;;;;;4.90;1.40;;;;;;;13.79;100.00;100714.47;5650496;26;20039;-77
2024/04/19 11:26:19;;;;;;;5.80;1.52;;;;;;;13.78;100.00;100731.22;5647981;26;20013;-76
2024/04/19 11:28:51;;;;;;;8.77;1.70;;;;;;;13.73;100.00;100734.31;5633761;26;20013;-77
2024/04/19 11:31:22;;;;;;;8.10;2.63;;;;;;;13.62;100.00;100727.47;5642892;26;20010;-76
2024/04/19 11:33:54;;;;;;;4.30;1.52;;;;;;;13.60;100.00;100734.72;5643472;26;19999;-78
2024/04/19 11:36:26;;;;;;;7.13;1.60;;;;;;;13.79;100.00;100738.16;5640049;26;20543;-76
2024/04/19 11:38:58;;;;;;;8.50;1.92;;;;;;;13.90;100.00;100731.78;5647051;26;20003;-78
2024/04/19 11:41:30;;;;;;;4.75;1.40;;;;;;;13.98;100.00;100726.56;5637423;26;20097;-77
2024/04/19 11:44:04;;;;;;;7.85;1.80;;;;;;;14.04;100.00;100731.22;5651343;26;20039;-77
2024/04/19 11:46:42;;;;;;;9.45;2.80;;;;;;;14.28;100.00;100728.75;5646052;26;20035;-74
2024/04/19 11:49:15;;;;;;;5.32;1.65;;;;;;;14.33;100.00;100728.28;5634274;26;20028;-77